ADDS METAR Data INFO
IDs: Format: Raw Decoded Include TAF

Data at: 1350 UTC 23 Jun 2018

KLXL 231335Z AUTO 00000KT 10SM CLR 20/17 A2978 RMK AO2
KLXL 231315Z AUTO 00000KT 10SM CLR 20/17 A2978 RMK AO2
KLXL 231255Z AUTO 15003KT 10SM CLR 18/18 A2977 RMK AO2
KLXL 231235Z AUTO 00000KT 10SM SCT048 17/17 A2977 RMK AO2
KLXL 231215Z AUTO 00000KT 10SM SCT048 16/16 A2977 RMK AO2
KLXL 231155Z AUTO 00000KT 5SM BR CLR 15/15 A2977 RMK AO2
KLXL 231135Z AUTO 00000KT 4SM BR SCT045 SCT050 13/13 A2978 RMK AO2
KLXL 231115Z AUTO 00000KT 1 1/4SM BR BKN045 13/13 A2978 RMK AO2 VIS 1/2V5
KLXL 231055Z AUTO 00000KT 1 3/4SM BR VV007 13/13 A2978 RMK AO2
KLXL 231035Z AUTO 00000KT 3SM BR CLR 13/13 A2978 RMK AO2
KLXL 231015Z AUTO 00000KT 5SM BR CLR 14/14 A2978 RMK AO2
KLXL 230955Z AUTO 00000KT 1 3/4SM BR VV007 13/13 A2978 RMK AO2
KLXL 230935Z AUTO 00000KT 3SM BR CLR 14/14 A2978 RMK AO2
KLXL 230915Z AUTO 00000KT 5SM BR CLR 13/13 A2979 RMK AO2
KLXL 230855Z AUTO 00000KT 3SM BR CLR 15/15 A2979 RMK AO2
KLXL 230835Z AUTO 00000KT 5SM BR CLR 15/15 A2980 RMK AO2
KLXL 230815Z AUTO 00000KT 7SM SCT049 15/15 A2980 RMK AO2
KLXL 230755Z AUTO 00000KT 7SM CLR 15/15 A2980 RMK AO2
KLXL 230735Z AUTO 00000KT 10SM SCT048 14/14 A2980 RMK AO2
KLXL 230715Z AUTO 00000KT 10SM SCT048 14/14 A2981 RMK AO2
KLXL 230655Z AUTO 00000KT 10SM CLR 15/15 A2980 RMK AO2
KLXL 230635Z AUTO 00000KT 7SM CLR 15/15 A2981 RMK AO2
KLXL 230615Z AUTO 00000KT 10SM CLR 15/15 A2981 RMK AO2
KLXL 230555Z AUTO 00000KT 10SM CLR 15/15 A2981 RMK AO2
KLXL 230535Z AUTO 00000KT 10SM CLR 16/16 A2980 RMK AO2
KLXL 230515Z AUTO 00000KT 10SM CLR 15/15 A2980 RMK AO2
KLXL 230455Z AUTO 08003KT 10SM CLR 15/15 A2981 RMK AO2
KLXL 230435Z AUTO 00000KT 10SM CLR 15/15 A2981 RMK AO2
KLXL 230415Z AUTO 00000KT 10SM CLR 16/15 A2982 RMK AO2
KLXL 230355Z AUTO 00000KT 10SM CLR 16/15 A2982 RMK AO2
KLXL 230335Z AUTO 00000KT 10SM CLR 17/15 A2982 RMK AO2
KLXL 230315Z AUTO 00000KT 10SM CLR 17/14 A2982 RMK AO2
KLXL 230255Z AUTO 00000KT 10SM CLR 18/15 A2982 RMK AO2
KLXL 230235Z AUTO 00000KT 10SM CLR 18/15 A2980 RMK AO2
KLXL 230215Z AUTO 00000KT 10SM CLR 20/14 A2979 RMK AO2
KLXL 230155Z AUTO 09003KT 10SM CLR 21/14 A2979 RMK AO2
KLXL 230135Z AUTO 00000KT 10SM CLR 21/14 A2979 RMK AO2
KLXL 230115Z AUTO 00000KT 10SM CLR 22/15 A2979 RMK AO2
KLXL 230055Z AUTO 00000KT 10SM CLR 22/15 A2980 RMK AO2
KLXL 230035Z AUTO 11003KT 10SM CLR 23/14 A2980 RMK AO2
KLXL 230015Z AUTO 00000KT 10SM CLR 24/12 A2981 RMK AO2
KLXL 222355Z AUTO 12003KT 10SM CLR 25/12 A2981 RMK AO2
KLXL 222335Z AUTO 00000KT 10SM CLR 25/12 A2982 RMK AO2
KLXL 222315Z AUTO 00000KT 10SM CLR 25/12 A2982 RMK AO2
KLXL 222255Z AUTO 00000KT 10SM CLR 26/12 A2983 RMK AO2
KLXL 222235Z AUTO 14005KT 10SM CLR 26/13 A2984 RMK AO2
KLXL 222215Z AUTO 13003KT 10SM CLR 26/13 A2984 RMK AO2
KLXL 222155Z AUTO 13006KT 10SM CLR 25/13 A2985 RMK AO2
KLXL 222135Z AUTO 11004KT 10SM CLR 26/13 A2986 RMK AO2 LTG DSNT W
KLXL 222115Z AUTO 19003KT 10SM CLR 25/13 A2986 RMK AO2
KLXL 222055Z AUTO 16003KT 10SM CLR 25/13 A2987 RMK AO2
KLXL 222035Z AUTO 00000KT 10SM CLR 25/13 A2988 RMK AO2
KLXL 222015Z AUTO 14003KT 10SM SCT042 24/15 A2988 RMK AO2
KLXL 221955Z AUTO 00000KT 10SM CLR 25/15 A2989 RMK AO2
KLXL 221936Z AUTO 00000KT 10SM CLR 25/15 A2989 RMK AO2
KLXL 221915Z AUTO 25005KT 10SM CLR 24/15 A2989 RMK AO2
KLXL 221855Z AUTO 00000KT 10SM CLR 24/14 A2989 RMK AO2
KLXL 221835Z AUTO 00000KT 10SM CLR 24/14 A2989 RMK AO2
KLXL 221815Z AUTO 00000KT 10SM CLR 23/15 A2989 RMK AO2
KLXL 221755Z AUTO 00000KT 10SM CLR 23/15 A2990 RMK AO2
KLXL 221735Z AUTO 00000KT 10SM CLR 23/13 A2990 RMK AO2
KLXL 221715Z AUTO 11003KT 10SM CLR 23/14 A2990 RMK AO2
KLXL 221655Z AUTO 00000KT 10SM CLR 23/15 A2990 RMK AO2
KLXL 221635Z AUTO 11004KT 10SM CLR 22/15 A2991 RMK AO2
KLXL 221615Z AUTO 11003KT 10SM CLR 22/14 A2991 RMK AO2
KLXL 221555Z AUTO 07003KT 10SM CLR 21/14 A2991 RMK AO2
KLXL 221535Z AUTO 00000KT 10SM CLR 21/15 A2991 RMK AO2
KLXL 221515Z AUTO 04003KT 10SM CLR 21/15 A2991 RMK AO2
KLXL 221456Z AUTO 00000KT 10SM CLR 21/13 A2992 RMK AO2
KLXL 221435Z AUTO 00000KT 10SM CLR 20/13 A2993 RMK AO2
KLXL 221415Z AUTO 00000KT 10SM CLR 18/13 A2994 RMK AO2
KLXL 221355Z AUTO 00000KT 10SM CLR 17/14 A2994 RMK AO2
KLXL 221335Z AUTO 00000KT 10SM CLR 17/13 A2994 RMK AO2
KLXL 221315Z AUTO 00000KT 10SM CLR 16/14 A2994 RMK AO2
KLXL 221255Z AUTO 00000KT 10SM CLR 16/13 A2994 RMK AO2
KLXL 221235Z AUTO 00000KT 10SM CLR 15/13 A2993 RMK AO2
KLXL 221215Z AUTO 00000KT 10SM CLR 14/14 A2993 RMK AO2
KLXL 221155Z AUTO 00000KT 10SM CLR 13/13 A2994 RMK AO2
KLXL 221135Z AUTO 00000KT 10SM CLR 12/12 A2994 RMK AO2
KLXL 221115Z AUTO 00000KT 10SM CLR 11/11 A2994 RMK AO2
KLXL 221055Z AUTO 00000KT 10SM CLR 11/11 A2994 RMK AO2
KLXL 221035Z AUTO 00000KT 10SM CLR 11/11 A2994 RMK AO2
KLXL 221015Z AUTO 00000KT 2 1/2SM BR CLR 11/11 A2993 RMK AO2 VIS 1V5
KLXL 220955Z AUTO 00000KT 7SM CLR 11/11 A2994 RMK AO2
KLXL 220935Z AUTO 00000KT 10SM CLR 12/12 A2994 RMK AO2
KLXL 220915Z AUTO 00000KT 10SM CLR 12/12 A2994 RMK AO2
KLXL 220855Z AUTO 00000KT 10SM CLR 12/12 A2994 RMK AO2
KLXL 220835Z AUTO 00000KT 10SM CLR 12/12 A2994 RMK AO2
KLXL 220815Z AUTO 00000KT 10SM CLR 12/12 A2994 RMK AO2
KLXL 220755Z AUTO 00000KT 10SM CLR 12/12 A2993 RMK AO2
KLXL 220735Z AUTO 00000KT 7SM CLR 12/12 A2992 RMK AO2
KLXL 220716Z AUTO 00000KT 106
KLXL 220655Z AUTO 00000KT 10SM CLR 12/12 A2993 RMK AO2
KLXL 220635Z AUTO 00000KT 7SM CLR 12/12 A2993 RMK AO2
KLXL 220615Z AUTO 00000KT 10SM CLR 13/13 A2994 RMK AO2
KLXL 220555Z AUTO 00000KT 10SM CLR 13/13 A2994 RMK AO2
KLXL 220535Z AUTO 00000KT 10SM CLR 13/13 A2994 RMK AO2
KLXL 220515Z AUTO 00000KT 10SM CLR 13/13 A2994 RMK AO2
KLXL 220455Z AUTO 00000KT 10SM CLR 13/13 A2994 RMK AO2
KLXL 220435Z AUTO 00000KT 10SM CLR 13/13 A2994 RMK AO2
KLXL 220415Z AUTO 00000KT 10SM CLR 13/12 A2995 RMK AO2
KLXL 220355Z AUTO 00000KT 10SM CLR 15/12 A2995 RMK AO2
KLXL 220335Z AUTO 00000KT 10SM CLR 15/13 A2994 RMK AO2
KLXL 220315Z AUTO 00000KT 10SM CLR 15/13 A2994 RMK AO2
KLXL 220255Z AUTO 00000KT 10SM CLR 16/12 A2994 RMK AO2
KLXL 220235Z AUTO 00000KT 10SM CLR 18/10 A2994 RMK AO2
KLXL 220215Z AUTO 00000KT 10SM CLR 18/10 A2993 RMK AO2
KLXL 220155Z AUTO 00000KT 10SM CLR 19/11 A2993 RMK AO2